• Join FlightAware (Why Join?)
  • Login
  • US Flag 
09:22PM EDT


 

Airport Tracker/Info


-or-


 

Live Flight TrackerFlight Track Log ✈ FLG3432 ✈ 09-May-2013 ✈ KALB - KMSP

Flight Track Log - Related Links

Times and Time Zones

All times are in EDT time to prevent confusion due to time zone crossing. See the FLG3432 flight status page for this flight to view local times or setup timezone preferences in your user account.

Time Position Orientation Groundspeed Altitude Reporting Facility
EDT Latitude Longitude Course Direction KTS MPH feet Rate Location/Type
06:32AM 42.7714 -73.8092 284° West 172 198 1,100  Level Boston Center
06:33AM 42.8169 -73.8300 341° North 211 243 2,500 2,040 Climbing Boston Center
06:35AM 42.8150 -74.2138 282° West  Level FlightAware Approximate
06:35AM 42.9078 -73.9114 327° Northwest 289 333 6,000  Level Boston Center
06:36AM 42.8371 -74.3556 283° West  Level FlightAware Approximate
06:36AM 42.9697 -73.9611 330° Northwest 289 333 8,500  Level Boston Center
06:37AM 42.8606 -74.4970 283° West  Level FlightAware Approximate
06:37AM 43.0458 -74.0311 326° Northwest 289 333 10,400  Level Boston Center
06:38AM 42.8953 -74.6321 284° West  Level FlightAware Approximate
06:38AM 43.0586 -74.1481 279° West 297 342 12,000  Level Boston Center
06:39AM 43.0669 -74.2931 275° West 319 367 14,300 1,980 Climbing Boston Center
06:40AM 43.0731 -74.4211 274° West 367 422 16,000 1,860 Climbing Boston Center
06:41AM 43.0825 -74.5836 275° West 390 449 18,100 1,860 Climbing Boston Center
06:42AM 43.0903 -74.7175 275° West 395 455 19,800 1,620 Climbing Boston Center
06:43AM 43.0997 -74.8714 275° West 405 466 21,400 1,500 Climbing Boston Center
06:44AM 43.1067 -75.0281 274° West 405 466 22,900 1,500 Climbing Boston Center
06:45AM 43.1133 -75.1878 273° West 416 479 24,500 1,380 Climbing Boston Center
06:46AM 43.1236 -75.3644 275° West 428 493 25,700 1,200 Climbing Boston Center
06:47AM 43.1506 -75.5281 283° West 435 501 26,900 1,080 Climbing Boston Center
06:48AM 43.2044 -75.6875 295° West 442 509 27,900 1,320 Climbing Boston Center
06:49AM 43.2583 -75.8444 295° West 448 516 29,600 1,500 Climbing Boston Center
06:50AM 43.3100 -75.9958 295° West 448 516 30,900 660 Climbing Boston Center
06:51AM 43.3633 -76.1558 295° West 448 516 31,000 300 Climbing Boston Center
06:52AM 43.4203 -76.3197 296° West 461 531 31,500 900 Climbing Boston Center
06:53AM 43.4639 -76.4511 295° West 467 537 32,900 900 Climbing Boston Center
06:55AM 43.5500 -76.7333 293° West 440 506 34,000 360 Climbing Toronto Center
06:56AM 43.6000 -76.9000 293° West 440 506 34,000  Level Toronto Center
06:57AM 43.6500 -77.0500 295° West 450 518 34,000  Level Toronto Center
06:58AM 43.7000 -77.1833 297° West 450 518 34,000  Level Toronto Center
06:59AM 43.7500 -77.3667 291° West 450 518 34,000  Level Toronto Center
07:00AM 43.8000 -77.5333 293° West 450 518 34,000  Level Toronto Center
07:01AM 43.8500 -77.6833 295° West 460 529 34,000  Level Toronto Center
07:02AM 43.9000 -77.8500 293° West 460 529 34,000  Level Toronto Center
07:03AM 43.9500 -77.9833 298° West 450 518 34,000  Level Toronto Center
07:04AM 44.0000 -78.1667 291° West 450 518 34,000  Level Toronto Center
07:05AM 44.0333 -78.3167 287° West 440 506 34,000  Level Toronto Center
07:06AM 44.0833 -78.4667 295° West 440 506 34,000  Level Toronto Center
07:07AM 44.1500 -78.6333 299° West 440 506 34,000  Level Toronto Center
07:08AM 44.2000 -78.8000 293° West 430 495 34,000  Level Toronto Center
07:09AM 44.2333 -78.9333 289° West 430 495 34,000  Level Toronto Center
07:10AM 44.2833 -79.1000 293° West 430 495 34,000  Level Toronto Center
07:11AM 44.3167 -79.2667 286° West 440 506 34,000  Level Toronto Center
07:12AM 44.3333 -79.4167 279° West 440 506 34,000  Level Toronto Center
07:13AM 44.3333 -79.6167 270° West 450 518 34,000  Level Toronto Center
07:14AM 44.3500 -79.7667 279° West 450 518 34,000  Level Toronto Center
07:15AM 44.3667 -79.9667 277° West 450 518 34,000  Level Toronto Center
07:16AM 44.3667 -80.1167 270° West 450 518 34,000  Level Toronto Center
07:17AM 44.3833 -80.3167 277° West 450 518 34,000  Level Toronto Center
07:18AM 44.3833 -80.4667 270° West 440 506 34,000  Level Toronto Center
07:19AM 44.4000 -80.6667 277° West 440 506 34,000  Level Toronto Center
07:20AM 44.4167 -80.8167 279° West 440 506 34,000  Level Toronto Center
07:21AM 44.4000 -80.9833 262° West 440 506 34,000  Level Toronto Center
07:22AM 44.4167 -81.1500 278° West 440 506 34,000  Level Toronto Center
07:23AM 44.4333 -81.3333 277° West 440 506 34,000  Level Toronto Center
07:24AM 44.4333 -81.5000 270° West 440 506 34,000  Level Toronto Center
07:25AM 44.4500 -81.6667 278° West 440 506 34,000  Level Toronto Center
07:26AM 44.4500 -81.8333 270° West 440 506 34,000  Level Toronto Center
07:27AM 44.4500 -82.0167 270° West 430 495 34,000  Level Toronto Center
07:28AM 44.4667 -82.1833 278° West 440 506 34,000  Level Toronto Center
07:29AM 44.4667 -82.3667 270° West 440 506 34,000  Level Toronto Center
07:30AM 44.4833 -82.5333 278° West 440 506 34,000  Level Toronto Center
07:31AM 44.4833 -82.7000 270° West 440 506 34,000  Level Toronto Center
07:31AM 44.4953 -82.7292 300° West 438 504 34,000  Level Minneapolis Center
07:32AM 44.5000 -82.8989 272° West 437 503 34,000  Level Minneapolis Center
07:33AM 44.5061 -83.0683 273° West 437 503 34,000  Level Minneapolis Center
07:34AM 44.5125 -83.2369 273° West 435 501 34,000  Level Minneapolis Center
07:35AM 44.5172 -83.4033 272° West 431 496 34,000  Level Minneapolis Center
07:36AM 44.5208 -83.5697 272° West 430 495 34,000  Level Minneapolis Center
07:37AM 44.5264 -83.7361 273° West 429 494 34,000  Level Minneapolis Center
07:38AM 44.5319 -83.9344 272° West 427 491 34,000  Level Minneapolis Center
07:39AM 44.5353 -84.1008 272° West 427 491 34,000  Level Minneapolis Center
07:40AM 44.5389 -84.2664 272° West 427 491 34,000  Level Minneapolis Center
07:41AM 44.5428 -84.4314 272° West 426 490 34,000  Level Minneapolis Center
07:42AM 44.5519 -84.5958 275° West 424 488 34,000  Level Minneapolis Center
07:43AM 44.5669 -84.7619 277° West 428 493 34,000  Level Minneapolis Center
07:44AM 44.5789 -84.9306 276° West 435 501 34,000  Level Minneapolis Center
07:45AM 44.5928 -85.0986 277° West 435 501 34,000  Level Minneapolis Center
07:46AM 44.6058 -85.2672 276° West 435 501 34,000  Level Minneapolis Center
07:47AM 44.6178 -85.4356 276° West 434 499 34,000  Level Minneapolis Center
07:48AM 44.6306 -85.6044 276° West 435 501 34,000  Level Minneapolis Center
07:49AM 44.6425 -85.7883 275° West 436 502 34,000  Level Minneapolis Center
07:50AM 44.6553 -85.9553 276° West 435 501 34,000  Level Minneapolis Center
07:51AM 44.6669 -86.1233 276° West 435 501 34,000  Level Minneapolis Center
07:52AM 44.6783 -86.2919 275° West 435 501 34,000  Level Minneapolis Center
07:53AM 44.6889 -86.4619 275° West 437 503 34,000  Level Minneapolis Center
07:54AM 44.6989 -86.6289 275° West 435 501 34,000  Level Minneapolis Center
07:55AM 44.7111 -86.8319 275° West 434 499 34,000  Level Minneapolis Center
07:56AM 44.7203 -87.0008 274° West 434 499 34,000  Level Minneapolis Center
07:57AM 44.7308 -87.1706 275° West 435 501 34,000  Level Minneapolis Center
07:58AM 44.7400 -87.3403 274° West 436 502 34,000  Level Minneapolis Center
07:59AM 44.7503 -87.5106 275° West 437 503 34,000  Level Minneapolis Center
08:00AM 44.7589 -87.6797 274° West 436 502 34,000  Level Minneapolis Center
08:01AM 44.7689 -87.8500 275° West 437 503 34,000  Level Minneapolis Center
08:02AM 44.7764 -88.0197 274° West 436 502 34,000  Level Minneapolis Center
08:03AM 44.7861 -88.1881 275° West 434 499 34,000  Level Minneapolis Center
08:04AM 44.7933 -88.3631 273° West 434 499 34,000  Level Minneapolis Center
08:05AM 44.8028 -88.5608 274° West 435 501 34,000 -540 Level Minneapolis Center
08:06AM 44.8100 -88.7281 274° West 432 497 32,900 -1,020 Descending Minneapolis Center
08:07AM 44.8175 -88.8925 274° West 424 488 32,000 -480 Descending Minneapolis Center
08:08AM 44.8247 -89.0572 274° West 422 486 32,000  Level Minneapolis Center
08:09AM 44.8314 -89.2272 273° West 433 498 32,000  Level Minneapolis Center
08:11AM 44.8381 -89.3978 273° West 436 502 32,000 -360 Level Minneapolis Center
08:12AM 44.8431 -89.5697 272° West 438 504 31,300 -840 Descending Minneapolis Center
08:13AM 44.8500 -89.7336 273° West 425 489 30,300 -660 Descending Minneapolis Center
08:14AM 44.8564 -89.9294 273° West 430 495 30,000 -180 Descending Minneapolis Center
08:15AM 44.8625 -90.0972 273° West 429 494 30,000  Level Minneapolis Center
08:16AM 44.8725 -90.2678 275° West 434 499 30,000  Level Minneapolis Center
08:17AM 44.8894 -90.4367 278° West 434 499 30,000  Level Minneapolis Center
08:18AM 44.9056 -90.6061 278° West 436 502 30,000 -60 Level Minneapolis Center
08:19AM 44.9206 -90.7747 277° West 434 499 29,900 -1,080 Descending Minneapolis Center
08:20AM 44.9372 -90.9400 278° West 435 501 27,800 -2,040 Descending Minneapolis Center
08:21AM 44.9489 -91.1036 276° West 427 491 25,800 -2,220 Descending Minneapolis Center
08:22AM 44.9656 -91.3006 277° West 423 487 23,300 -2,280 Descending Minneapolis Center
08:23AM 44.9800 -91.4647 277° West 424 488 21,200 -2,100 Descending Minneapolis Center
08:24AM 44.9950 -91.6267 278° West 420 483 19,100 -2,100 Descending Minneapolis Center
08:25AM 45.0106 -91.7878 278° West 418 481 17,000 -2,040 Descending Minneapolis Center
08:26AM 45.0231 -91.9444 276° West 406 467 14,900 -2,040 Descending Minneapolis Center
08:27AM 45.0342 -92.0939 276° West 385 443 12,800 -1,920 Descending Minneapolis Center
08:28AM 45.0483 -92.2739 276° West 384 442 11,000 -900 Descending Minneapolis Center
08:29AM 45.0286 -92.4183 259° West 374 430 11,000 -540 Level Minneapolis Center
08:30AM 44.9906 -92.5167 241° Southwest 354 407 10,000 -1,260 Descending Minneapolis Center
08:31AM 44.9325 -92.6281 234° Southwest 293 337 8,500 -1,500 Descending Minneapolis Center
08:32AM 44.8853 -92.7172 233° Southwest 286 329 7,000 -1,080 Descending Minneapolis Center
08:33AM 44.8383 -92.8047 233° Southwest 282 325 6,400 -1,080 Descending Minneapolis Center
08:34AM 44.8231 -92.9342 261° West 283 326 4,800 -1,500 Descending Minneapolis Center
08:35AM 44.8228 -93.0442 270° West 283 326 3,300 -1,500 Descending Minneapolis Center